sensor_id;sensor_type;location;lat;lon;timestamp;temperature;humidity
6018;DHT22;3037;51.068;13.780;2023-07-29T00:00:48;19.70;1.00
6018;DHT22;3037;51.068;13.780;2023-07-29T00:03:13;19.80;99.90
6018;DHT22;3037;51.068;13.780;2023-07-29T00:05:39;19.70;1.00
6018;DHT22;3037;51.068;13.780;2023-07-29T00:08:05;19.70;1.00
6018;DHT22;3037;51.068;13.780;2023-07-29T00:10:32;19.60;1.00
6018;DHT22;3037;51.068;13.780;2023-07-29T00:12:58;19.70;1.00
6018;DHT22;3037;51.068;13.780;2023-07-29T00:15:24;19.80;1.00
6018;DHT22;3037;51.068;13.780;2023-07-29T00:17:49;19.90;99.90
6018;DHT22;3037;51.068;13.780;2023-07-29T00:20:16;19.90;99.90
6018;DHT22;3037;51.068;13.780;2023-07-29T00:22:41;19.90;99.90
6018;DHT22;3037;51.068;13.780;2023-07-29T00:25:07;20.00;99.90
6018;DHT22;3037;51.068;13.780;2023-07-29T00:27:33;19.90;99.90
6018;DHT22;3037;51.068;13.780;2023-07-29T00:29:58;19.80;99.90
6018;DHT22;3037;51.068;13.780;2023-07-29T00:32:24;19.80;99.90
6018;DHT22;3037;51.068;13.780;2023-07-29T00:34:50;19.70;1.00
6018;DHT22;3037;51.068;13.780;2023-07-29T00:37:15;19.70;1.00
6018;DHT22;3037;51.068;13.780;2023-07-29T00:39:41;19.80;99.90
6018;DHT22;3037;51.068;13.780;2023-07-29T00:42:06;19.80;1.00
6018;DHT22;3037;51.068;13.780;2023-07-29T00:44:32;19.70;1.00
6018;DHT22;3037;51.068;13.780;2023-07-29T00:46:58;19.70;1.00
6018;DHT22;3037;51.068;13.780;2023-07-29T00:49:26;19.70;1.00
6018;DHT22;3037;51.068;13.780;2023-07-29T00:51:51;19.70;1.00
6018;DHT22;3037;51.068;13.780;2023-07-29T00:54:17;19.60;1.00
6018;DHT22;3037;51.068;13.780;2023-07-29T00:56:42;19.60;1.00
6018;DHT22;3037;51.068;13.780;2023-07-29T00:59:08;19.50;1.00
6018;DHT22;3037;51.068;13.780;2023-07-29T01:01:34;19.50;1.00
6018;DHT22;3037;51.068;13.780;2023-07-29T01:03:59;19.50;1.00
6018;DHT22;3037;51.068;13.780;2023-07-29T01:06:41;19.70;1.00
6018;DHT22;3037;51.068;13.780;2023-07-29T01:09:25;19.70;1.00
6018;DHT22;3037;51.068;13.780;2023-07-29T01:12:13;19.60;1.00
6018;DHT22;3037;51.068;13.780;2023-07-29T01:14:51;19.50;1.00
6018;DHT22;3037;51.068;13.780;2023-07-29T01:17:23;19.40;1.00
6018;DHT22;3037;51.068;13.780;2023-07-29T01:20:02;19.40;1.00
6018;DHT22;3037;51.068;13.780;2023-07-29T01:22:32;19.40;1.00
6018;DHT22;3037;51.068;13.780;2023-07-29T01:24:59;19.40;1.00
6018;DHT22;3037;51.068;13.780;2023-07-29T01:27:25;19.30;1.00
6018;DHT22;3037;51.068;13.780;2023-07-29T01:29:52;19.30;1.00
6018;DHT22;3037;51.068;13.780;2023-07-29T01:32:29;19.30;1.00
6018;DHT22;3037;51.068;13.780;2023-07-29T01:37:47;19.20;1.00
6018;DHT22;3037;51.068;13.780;2023-07-29T01:40:14;19.10;1.00
6018;DHT22;3037;51.068;13.780;2023-07-29T01:42:40;19.10;14.60
6018;DHT22;3037;51.068;13.780;2023-07-29T01:45:06;19.00;1.00
6018;DHT22;3037;51.068;13.780;2023-07-29T01:47:32;18.90;18.70
6018;DHT22;3037;51.068;13.780;2023-07-29T01:49:57;18.90;28.40
6018;DHT22;3037;51.068;13.780;2023-07-29T01:52:23;18.90;8.80
6018;DHT22;3037;51.068;13.780;2023-07-29T01:54:48;18.90;99.90
6018;DHT22;3037;51.068;13.780;2023-07-29T01:57:14;18.90;1.00
6018;DHT22;3037;51.068;13.780;2023-07-29T01:59:39;18.80;99.90
6018;DHT22;3037;51.068;13.780;2023-07-29T02:02:05;18.70;99.90
6018;DHT22;3037;51.068;13.780;2023-07-29T02:04:31;18.70;99.90
6018;DHT22;3037;51.068;13.780;2023-07-29T02:06:56;18.70;99.90
6018;DHT22;3037;51.068;13.780;2023-07-29T02:09:22;18.70;99.90
6018;DHT22;3037;51.068;13.780;2023-07-29T02:11:47;18.60;99.90
6018;DHT22;3037;51.068;13.780;2023-07-29T02:14:13;18.50;99.90
6018;DHT22;3037;51.068;13.780;2023-07-29T02:16:38;18.50;99.90
6018;DHT22;3037;51.068;13.780;2023-07-29T02:19:04;18.40;99.90
6018;DHT22;3037;51.068;13.780;2023-07-29T02:21:30;18.30;99.90
6018;DHT22;3037;51.068;13.780;2023-07-29T02:23:55;18.40;99.90
6018;DHT22;3037;51.068;13.780;2023-07-29T02:26:22;18.60;99.90
6018;DHT22;3037;51.068;13.780;2023-07-29T02:28:47;18.50;99.90
6018;DHT22;3037;51.068;13.780;2023-07-29T02:31:21;18.50;99.90
6018;DHT22;3037;51.068;13.780;2023-07-29T02:33:47;18.50;99.90
6018;DHT22;3037;51.068;13.780;2023-07-29T02:36:13;18.50;99.90
6018;DHT22;3037;51.068;13.780;2023-07-29T02:38:39;18.50;99.90
6018;DHT22;3037;51.068;13.780;2023-07-29T02:41:04;18.50;99.90
6018;DHT22;3037;51.068;13.780;2023-07-29T02:43:30;18.40;99.90
6018;DHT22;3037;51.068;13.780;2023-07-29T02:45:55;18.50;99.90
6018;DHT22;3037;51.068;13.780;2023-07-29T02:48:21;18.50;99.90
6018;DHT22;3037;51.068;13.780;2023-07-29T02:50:46;18.40;99.90
6018;DHT22;3037;51.068;13.780;2023-07-29T02:53:12;18.30;99.90
6018;DHT22;3037;51.068;13.780;2023-07-29T02:55:41;18.30;99.90
6018;DHT22;3037;51.068;13.780;2023-07-29T02:58:07;18.40;99.90
6018;DHT22;3037;51.068;13.780;2023-07-29T03:00:33;18.40;99.90
6018;DHT22;3037;51.068;13.780;2023-07-29T03:02:59;18.40;99.90
6018;DHT22;3037;51.068;13.780;2023-07-29T03:05:27;18.40;99.90
6018;DHT22;3037;51.068;13.780;2023-07-29T03:07:52;18.40;99.90
6018;DHT22;3037;51.068;13.780;2023-07-29T03:10:18;18.30;99.90
6018;DHT22;3037;51.068;13.780;2023-07-29T03:12:43;18.50;99.90
6018;DHT22;3037;51.068;13.780;2023-07-29T03:15:09;18.50;99.90
6018;DHT22;3037;51.068;13.780;2023-07-29T03:17:34;18.60;99.90
6018;DHT22;3037;51.068;13.780;2023-07-29T03:20:00;18.60;99.90
6018;DHT22;3037;51.068;13.780;2023-07-29T03:22:25;18.60;1.00
6018;DHT22;3037;51.068;13.780;2023-07-29T03:24:51;18.60;1.00
6018;DHT22;3037;51.068;13.780;2023-07-29T03:27:16;18.70;1.00
6018;DHT22;3037;51.068;13.780;2023-07-29T03:29:42;18.80;1.00
6018;DHT22;3037;51.068;13.780;2023-07-29T03:32:07;18.80;1.00
6018;DHT22;3037;51.068;13.780;2023-07-29T03:34:33;18.80;1.00
6018;DHT22;3037;51.068;13.780;2023-07-29T03:37:00;18.90;99.90
6018;DHT22;3037;51.068;13.780;2023-07-29T03:39:26;19.00;1.00
6018;DHT22;3037;51.068;13.780;2023-07-29T03:41:52;19.00;1.00
6018;DHT22;3037;51.068;13.780;2023-07-29T03:44:17;18.90;1.00
6018;DHT22;3037;51.068;13.780;2023-07-29T03:46:44;19.00;1.00
6018;DHT22;3037;51.068;13.780;2023-07-29T03:49:09;18.90;99.90
6018;DHT22;3037;51.068;13.780;2023-07-29T03:51:35;18.80;99.90
6018;DHT22;3037;51.068;13.780;2023-07-29T03:54:01;18.90;99.90
6018;DHT22;3037;51.068;13.780;2023-07-29T03:56:26;19.00;99.90
6018;DHT22;3037;51.068;13.780;2023-07-29T03:58:52;18.90;99.90
6018;DHT22;3037;51.068;13.780;2023-07-29T04:01:18;19.10;1.00
6018;DHT22;3037;51.068;13.780;2023-07-29T04:03:45;19.20;99.90
6018;DHT22;3037;51.068;13.780;2023-07-29T04:06:11;19.30;99.90
6018;DHT22;3037;51.068;13.780;2023-07-29T04:08:37;19.30;1.00
6018;DHT22;3037;51.068;13.780;2023-07-29T04:11:03;19.30;1.00
6018;DHT22;3037;51.068;13.780;2023-07-29T04:13:28;19.40;99.90
6018;DHT22;3037;51.068;13.780;2023-07-29T04:15:54;19.50;1.00
6018;DHT22;3037;51.068;13.780;2023-07-29T04:18:19;19.50;1.00
6018;DHT22;3037;51.068;13.780;2023-07-29T04:20:45;19.50;99.90
6018;DHT22;3037;51.068;13.780;2023-07-29T04:23:10;19.70;99.90
6018;DHT22;3037;51.068;13.780;2023-07-29T04:25:36;19.80;99.90
6018;DHT22;3037;51.068;13.780;2023-07-29T04:28:02;19.80;1.00
6018;DHT22;3037;51.068;13.780;2023-07-29T04:30:30;19.90;99.90
6018;DHT22;3037;51.068;13.780;2023-07-29T04:32:55;19.90;1.00
6018;DHT22;3037;51.068;13.780;2023-07-29T04:35:21;20.00;99.90
6018;DHT22;3037;51.068;13.780;2023-07-29T04:37:46;20.00;99.90
6018;DHT22;3037;51.068;13.780;2023-07-29T04:40:13;19.90;1.00
6018;DHT22;3037;51.068;13.780;2023-07-29T04:42:39;19.90;1.00
6018;DHT22;3037;51.068;13.780;2023-07-29T04:45:05;20.00;1.00
6018;DHT22;3037;51.068;13.780;2023-07-29T04:47:31;20.10;1.00
6018;DHT22;3037;51.068;13.780;2023-07-29T04:49:56;20.10;1.00
6018;DHT22;3037;51.068;13.780;2023-07-29T04:52:22;20.10;62.90
6018;DHT22;3037;51.068;13.780;2023-07-29T04:54:47;20.20;1.00
6018;DHT22;3037;51.068;13.780;2023-07-29T04:57:13;20.20;1.00
6018;DHT22;3037;51.068;13.780;2023-07-29T04:59:38;20.20;1.00
6018;DHT22;3037;51.068;13.780;2023-07-29T05:02:04;20.20;99.90
6018;DHT22;3037;51.068;13.780;2023-07-29T05:04:30;20.20;1.00
6018;DHT22;3037;51.068;13.780;2023-07-29T05:06:55;20.20;99.90
6018;DHT22;3037;51.068;13.780;2023-07-29T05:09:21;20.20;1.00
6018;DHT22;3037;51.068;13.780;2023-07-29T05:11:46;20.30;1.00
6018;DHT22;3037;51.068;13.780;2023-07-29T05:14:13;20.30;99.90
6018;DHT22;3037;51.068;13.780;2023-07-29T05:16:39;20.30;1.00
6018;DHT22;3037;51.068;13.780;2023-07-29T05:19:05;20.30;1.00
6018;DHT22;3037;51.068;13.780;2023-07-29T05:21:30;20.30;99.90
6018;DHT22;3037;51.068;13.780;2023-07-29T05:23:56;20.30;1.00
6018;DHT22;3037;51.068;13.780;2023-07-29T05:26:23;20.40;99.90
6018;DHT22;3037;51.068;13.780;2023-07-29T05:28:49;20.50;99.90
6018;DHT22;3037;51.068;13.780;2023-07-29T05:31:14;20.60;1.00
6018;DHT22;3037;51.068;13.780;2023-07-29T05:33:40;20.70;1.00
6018;DHT22;3037;51.068;13.780;2023-07-29T05:36:05;20.70;1.00
6018;DHT22;3037;51.068;13.780;2023-07-29T05:38:31;20.90;99.90
6018;DHT22;3037;51.068;13.780;2023-07-29T05:40:57;20.90;99.90
6018;DHT22;3037;51.068;13.780;2023-07-29T05:43:24;21.00;99.90
6018;DHT22;3037;51.068;13.780;2023-07-29T05:45:50;21.20;1.00
6018;DHT22;3037;51.068;13.780;2023-07-29T05:48:16;21.40;1.00
6018;DHT22;3037;51.068;13.780;2023-07-29T05:50:42;21.70;1.00
6018;DHT22;3037;51.068;13.780;2023-07-29T05:53:07;22.00;99.90
6018;DHT22;3037;51.068;13.780;2023-07-29T05:55:33;22.10;1.00
6018;DHT22;3037;51.068;13.780;2023-07-29T05:57:59;22.20;1.00
6018;DHT22;3037;51.068;13.780;2023-07-29T06:00:24;22.30;1.00
6018;DHT22;3037;51.068;13.780;2023-07-29T06:02:50;22.50;1.00
6018;DHT22;3037;51.068;13.780;2023-07-29T06:05:15;22.80;1.00
6018;DHT22;3037;51.068;13.780;2023-07-29T06:07:41;22.90;99.90
6018;DHT22;3037;51.068;13.780;2023-07-29T06:10:12;23.00;1.00
6018;DHT22;3037;51.068;13.780;2023-07-29T06:12:38;23.30;99.90
6018;DHT22;3037;51.068;13.780;2023-07-29T06:15:04;24.00;99.90
6018;DHT22;3037;51.068;13.780;2023-07-29T06:17:30;26.50;99.90
6018;DHT22;3037;51.068;13.780;2023-07-29T06:19:55;28.20;99.90
6018;DHT22;3037;51.068;13.780;2023-07-29T06:22:21;28.60;1.00
6018;DHT22;3037;51.068;13.780;2023-07-29T06:24:46;27.60;1.00
6018;DHT22;3037;51.068;13.780;2023-07-29T06:27:12;28.30;1.00
6018;DHT22;3037;51.068;13.780;2023-07-29T06:29:37;28.40;1.00
6018;DHT22;3037;51.068;13.780;2023-07-29T06:32:03;29.00;1.00
6018;DHT22;3037;51.068;13.780;2023-07-29T06:34:29;28.00;1.00
6018;DHT22;3037;51.068;13.780;2023-07-29T06:36:54;27.60;99.90
6018;DHT22;3037;51.068;13.780;2023-07-29T06:39:20;27.30;1.00
6018;DHT22;3037;51.068;13.780;2023-07-29T06:41:45;27.60;1.00
6018;DHT22;3037;51.068;13.780;2023-07-29T06:44:11;29.90;1.00
6018;DHT22;3037;51.068;13.780;2023-07-29T06:46:36;30.00;99.90
6018;DHT22;3037;51.068;13.780;2023-07-29T06:49:02;32.30;1.00
6018;DHT22;3037;51.068;13.780;2023-07-29T06:51:28;30.10;99.90
6018;DHT22;3037;51.068;13.780;2023-07-29T06:53:57;28.50;1.00
6018;DHT22;3037;51.068;13.780;2023-07-29T06:56:23;27.60;1.00
6018;DHT22;3037;51.068;13.780;2023-07-29T06:58:48;27.20;1.00
6018;DHT22;3037;51.068;13.780;2023-07-29T07:01:14;27.00;99.90
6018;DHT22;3037;51.068;13.780;2023-07-29T07:03:39;26.80;1.00
6018;DHT22;3037;51.068;13.780;2023-07-29T07:06:05;27.40;96.60
6018;DHT22;3037;51.068;13.780;2023-07-29T07:08:31;27.50;1.00
6018;DHT22;3037;51.068;13.780;2023-07-29T07:10:56;27.50;99.90
6018;DHT22;3037;51.068;13.780;2023-07-29T07:13:22;27.30;4.10
6018;DHT22;3037;51.068;13.780;2023-07-29T07:15:47;27.40;1.00
6018;DHT22;3037;51.068;13.780;2023-07-29T07:18:13;27.20;1.00
6018;DHT22;3037;51.068;13.780;2023-07-29T07:20:39;26.60;99.90
6018;DHT22;3037;51.068;13.780;2023-07-29T07:23:04;26.70;99.90
6018;DHT22;3037;51.068;13.780;2023-07-29T07:25:36;27.00;1.00
6018;DHT22;3037;51.068;13.780;2023-07-29T07:28:02;27.30;1.00
6018;DHT22;3037;51.068;13.780;2023-07-29T07:30:28;27.60;99.90
6018;DHT22;3037;51.068;13.780;2023-07-29T07:32:53;28.20;11.70
6018;DHT22;3037;51.068;13.780;2023-07-29T07:35:18;28.60;99.90
6018;DHT22;3037;51.068;13.780;2023-07-29T07:37:44;29.00;99.90
6018;DHT22;3037;51.068;13.780;2023-07-29T07:40:10;29.40;78.00
6018;DHT22;3037;51.068;13.780;2023-07-29T07:42:36;30.20;1.00
6018;DHT22;3037;51.068;13.780;2023-07-29T07:45:02;34.00;1.00
6018;DHT22;3037;51.068;13.780;2023-07-29T07:47:27;35.20;1.00
6018;DHT22;3037;51.068;13.780;2023-07-29T07:49:53;34.10;99.90
6018;DHT22;3037;51.068;13.780;2023-07-29T07:52:18;34.00;1.00
6018;DHT22;3037;51.068;13.780;2023-07-29T07:54:44;32.80;99.90
6018;DHT22;3037;51.068;13.780;2023-07-29T07:57:09;31.50;32.60
6018;DHT22;3037;51.068;13.780;2023-07-29T07:59:35;31.70;22.70
6018;DHT22;3037;51.068;13.780;2023-07-29T08:02:00;31.50;1.00
6018;DHT22;3037;51.068;13.780;2023-07-29T08:04:26;30.60;99.90
6018;DHT22;3037;51.068;13.780;2023-07-29T08:06:51;29.70;99.90
6018;DHT22;3037;51.068;13.780;2023-07-29T08:09:17;29.00;99.90
6018;DHT22;3037;51.068;13.780;2023-07-29T08:11:42;28.30;1.00
6018;DHT22;3037;51.068;13.780;2023-07-29T08:14:08;27.90;1.00
6018;DHT22;3037;51.068;13.780;2023-07-29T08:16:33;27.90;1.00
6018;DHT22;3037;51.068;13.780;2023-07-29T08:18:59;27.80;1.00
6018;DHT22;3037;51.068;13.780;2023-07-29T08:21:26;28.00;1.00
6018;DHT22;3037;51.068;13.780;2023-07-29T08:23:52;27.80;99.90
6018;DHT22;3037;51.068;13.780;2023-07-29T08:26:17;28.20;5.90
6018;DHT22;3037;51.068;13.780;2023-07-29T08:28:43;28.40;1.00
6018;DHT22;3037;51.068;13.780;2023-07-29T08:31:09;28.60;1.00
6018;DHT22;3037;51.068;13.780;2023-07-29T08:33:34;28.90;99.90
6018;DHT22;3037;51.068;13.780;2023-07-29T08:36:00;29.20;99.90
6018;DHT22;3037;51.068;13.780;2023-07-29T08:38:26;29.10;1.00
6018;DHT22;3037;51.068;13.780;2023-07-29T08:41:10;29.40;1.00
6018;DHT22;3037;51.068;13.780;2023-07-29T08:43:39;29.20;99.90
6018;DHT22;3037;51.068;13.780;2023-07-29T08:46:08;29.70;99.90
6018;DHT22;3037;51.068;13.780;2023-07-29T08:48:42;29.70;1.00
6018;DHT22;3037;51.068;13.780;2023-07-29T08:51:11;30.00;1.00
6018;DHT22;3037;51.068;13.780;2023-07-29T08:53:38;31.80;1.00
6018;DHT22;3037;51.068;13.780;2023-07-29T08:56:04;32.60;1.00
6018;DHT22;3037;51.068;13.780;2023-07-29T08:58:31;32.30;1.00
6018;DHT22;3037;51.068;13.780;2023-07-29T09:00:57;31.70;1.00
6018;DHT22;3037;51.068;13.780;2023-07-29T09:03:22;31.50;1.00
6018;DHT22;3037;51.068;13.780;2023-07-29T09:05:48;32.10;99.90
6018;DHT22;3037;51.068;13.780;2023-07-29T09:08:14;31.70;99.90
6018;DHT22;3037;51.068;13.780;2023-07-29T09:10:40;31.10;99.90
6018;DHT22;3037;51.068;13.780;2023-07-29T09:13:06;30.50;1.00
6018;DHT22;3037;51.068;13.780;2023-07-29T09:15:34;30.00;99.90
6018;DHT22;3037;51.068;13.780;2023-07-29T09:18:15;29.40;99.90
6018;DHT22;3037;51.068;13.780;2023-07-29T09:20:41;29.10;99.90
6018;DHT22;3037;51.068;13.780;2023-07-29T09:23:09;29.20;99.90
6018;DHT22;3037;51.068;13.780;2023-07-29T09:25:37;29.10;99.90
6018;DHT22;3037;51.068;13.780;2023-07-29T09:28:12;29.30;1.00
6018;DHT22;3037;51.068;13.780;2023-07-29T09:30:42;29.30;1.00
6018;DHT22;3037;51.068;13.780;2023-07-29T09:33:08;29.20;99.90
6018;DHT22;3037;51.068;13.780;2023-07-29T09:35:35;29.40;99.90
6018;DHT22;3037;51.068;13.780;2023-07-29T09:38:05;29.80;99.90
6018;DHT22;3037;51.068;13.780;2023-07-29T09:40:39;30.50;1.00
6018;DHT22;3037;51.068;13.780;2023-07-29T09:43:05;30.60;1.00
6018;DHT22;3037;51.068;13.780;2023-07-29T09:45:34;30.50;1.00
6018;DHT22;3037;51.068;13.780;2023-07-29T09:48:01;30.00;14.20
6018;DHT22;3037;51.068;13.780;2023-07-29T09:50:27;29.80;1.00
6018;DHT22;3037;51.068;13.780;2023-07-29T09:52:54;30.00;1.00
6018;DHT22;3037;51.068;13.780;2023-07-29T09:55:24;30.00;85.30
6018;DHT22;3037;51.068;13.780;2023-07-29T09:57:56;29.90;29.10
6018;DHT22;3037;51.068;13.780;2023-07-29T10:00:22;29.20;1.00
6018;DHT22;3037;51.068;13.780;2023-07-29T10:02:48;29.10;1.00
6018;DHT22;3037;51.068;13.780;2023-07-29T10:05:14;28.90;12.30
6018;DHT22;3037;51.068;13.780;2023-07-29T10:07:40;28.70;99.90
6018;DHT22;3037;51.068;13.780;2023-07-29T10:10:07;28.50;1.00
6018;DHT22;3037;51.068;13.780;2023-07-29T10:12:34;28.10;99.90
6018;DHT22;3037;51.068;13.780;2023-07-29T10:15:03;27.70;1.00
6018;DHT22;3037;51.068;13.780;2023-07-29T10:17:30;27.30;1.00
6018;DHT22;3037;51.068;13.780;2023-07-29T10:19:56;26.10;1.00
6018;DHT22;3037;51.068;13.780;2023-07-29T10:22:27;25.00;1.00
6018;DHT22;3037;51.068;13.780;2023-07-29T10:24:56;24.30;1.00
6018;DHT22;3037;51.068;13.780;2023-07-29T10:27:24;24.30;1.00
6018;DHT22;3037;51.068;13.780;2023-07-29T10:29:50;24.60;1.00
6018;DHT22;3037;51.068;13.780;2023-07-29T10:32:17;24.90;1.00
6018;DHT22;3037;51.068;13.780;2023-07-29T10:34:45;25.30;1.00
6018;DHT22;3037;51.068;13.780;2023-07-29T10:37:11;25.40;1.00
6018;DHT22;3037;51.068;13.780;2023-07-29T10:39:44;25.70;1.00
6018;DHT22;3037;51.068;13.780;2023-07-29T10:42:16;26.10;1.00
6018;DHT22;3037;51.068;13.780;2023-07-29T10:44:45;26.40;1.00
6018;DHT22;3037;51.068;13.780;2023-07-29T10:47:21;26.30;1.00
6018;DHT22;3037;51.068;13.780;2023-07-29T10:49:50;26.10;1.00
6018;DHT22;3037;51.068;13.780;2023-07-29T10:52:31;26.10;1.00
6018;DHT22;3037;51.068;13.780;2023-07-29T10:55:03;25.90;1.00
6018;DHT22;3037;51.068;13.780;2023-07-29T10:57:37;25.70;1.00
6018;DHT22;3037;51.068;13.780;2023-07-29T11:00:04;25.70;1.00
6018;DHT22;3037;51.068;13.780;2023-07-29T11:02:35;25.20;1.00
6018;DHT22;3037;51.068;13.780;2023-07-29T11:05:17;25.20;1.00
6018;DHT22;3037;51.068;13.780;2023-07-29T11:07:47;25.10;1.00
6018;DHT22;3037;51.068;13.780;2023-07-29T11:10:13;24.90;1.00
6018;DHT22;3037;51.068;13.780;2023-07-29T11:12:47;25.00;1.00
6018;DHT22;3037;51.068;13.780;2023-07-29T11:15:17;25.40;1.00
6018;DHT22;3037;51.068;13.780;2023-07-29T11:20:11;26.50;1.00
6018;DHT22;3037;51.068;13.780;2023-07-29T11:22:37;26.50;1.00
6018;DHT22;3037;51.068;13.780;2023-07-29T11:25:04;26.80;1.00
6018;DHT22;3037;51.068;13.780;2023-07-29T11:27:30;27.30;1.00
6018;DHT22;3037;51.068;13.780;2023-07-29T11:29:57;27.20;1.00
6018;DHT22;3037;51.068;13.780;2023-07-29T11:32:24;27.10;1.00
6018;DHT22;3037;51.068;13.780;2023-07-29T11:34:50;26.60;1.00
6018;DHT22;3037;51.068;13.780;2023-07-29T11:37:16;26.30;1.00
6018;DHT22;3037;51.068;13.780;2023-07-29T11:39:43;26.10;1.00
6018;DHT22;3037;51.068;13.780;2023-07-29T11:42:15;26.00;1.00
6018;DHT22;3037;51.068;13.780;2023-07-29T11:44:41;25.80;1.00
6018;DHT22;3037;51.068;13.780;2023-07-29T11:47:08;25.90;1.00
6018;DHT22;3037;51.068;13.780;2023-07-29T11:49:34;26.20;1.00
6018;DHT22;3037;51.068;13.780;2023-07-29T11:52:01;25.80;1.00
6018;DHT22;3037;51.068;13.780;2023-07-29T11:54:27;25.80;1.00
6018;DHT22;3037;51.068;13.780;2023-07-29T11:56:53;25.80;1.00
6018;DHT22;3037;51.068;13.780;2023-07-29T11:59:19;25.60;1.00
6018;DHT22;3037;51.068;13.780;2023-07-29T12:01:45;25.60;1.00
6018;DHT22;3037;51.068;13.780;2023-07-29T12:04:11;25.70;1.00
6018;DHT22;3037;51.068;13.780;2023-07-29T12:06:38;25.70;1.00
6018;DHT22;3037;51.068;13.780;2023-07-29T12:09:04;25.80;1.00
6018;DHT22;3037;51.068;13.780;2023-07-29T12:11:30;25.90;1.00
6018;DHT22;3037;51.068;13.780;2023-07-29T12:13:55;26.00;1.00
6018;DHT22;3037;51.068;13.780;2023-07-29T12:16:21;26.10;1.00
6018;DHT22;3037;51.068;13.780;2023-07-29T12:18:47;26.20;1.00
6018;DHT22;3037;51.068;13.780;2023-07-29T12:21:14;26.20;1.00
6018;DHT22;3037;51.068;13.780;2023-07-29T12:23:40;26.60;1.00
6018;DHT22;3037;51.068;13.780;2023-07-29T12:26:05;26.70;1.00
6018;DHT22;3037;51.068;13.780;2023-07-29T12:28:31;26.90;1.00
6018;DHT22;3037;51.068;13.780;2023-07-29T12:30:57;26.90;1.00
6018;DHT22;3037;51.068;13.780;2023-07-29T12:33:36;26.80;1.00
6018;DHT22;3037;51.068;13.780;2023-07-29T12:36:03;26.90;1.00
6018;DHT22;3037;51.068;13.780;2023-07-29T12:38:29;27.00;1.00
6018;DHT22;3037;51.068;13.780;2023-07-29T12:40:55;27.30;1.00
6018;DHT22;3037;51.068;13.780;2023-07-29T12:43:21;27.60;1.00
6018;DHT22;3037;51.068;13.780;2023-07-29T12:45:49;27.80;1.00
6018;DHT22;3037;51.068;13.780;2023-07-29T12:48:14;27.80;1.00
6018;DHT22;3037;51.068;13.780;2023-07-29T12:50:40;27.90;1.00
6018;DHT22;3037;51.068;13.780;2023-07-29T12:53:07;28.20;1.00
6018;DHT22;3037;51.068;13.780;2023-07-29T12:55:33;28.20;1.00
6018;DHT22;3037;51.068;13.780;2023-07-29T12:57:59;28.20;1.00
6018;DHT22;3037;51.068;13.780;2023-07-29T13:00:25;28.50;1.00
6018;DHT22;3037;51.068;13.780;2023-07-29T13:02:50;28.30;1.00
6018;DHT22;3037;51.068;13.780;2023-07-29T13:05:16;28.50;1.00
6018;DHT22;3037;51.068;13.780;2023-07-29T13:07:42;28.50;1.00
6018;DHT22;3037;51.068;13.780;2023-07-29T13:10:11;28.80;1.00
6018;DHT22;3037;51.068;13.780;2023-07-29T13:12:38;28.70;1.00
6018;DHT22;3037;51.068;13.780;2023-07-29T13:15:04;28.40;1.00
6018;DHT22;3037;51.068;13.780;2023-07-29T13:17:30;28.30;1.00
6018;DHT22;3037;51.068;13.780;2023-07-29T13:19:55;28.00;1.00
6018;DHT22;3037;51.068;13.780;2023-07-29T13:22:21;27.60;1.00
6018;DHT22;3037;51.068;13.780;2023-07-29T13:24:47;27.50;1.00
6018;DHT22;3037;51.068;13.780;2023-07-29T13:27:12;27.40;1.00
6018;DHT22;3037;51.068;13.780;2023-07-29T13:29:38;27.30;1.00
6018;DHT22;3037;51.068;13.780;2023-07-29T13:32:04;27.20;1.00
6018;DHT22;3037;51.068;13.780;2023-07-29T13:34:30;27.20;1.00
6018;DHT22;3037;51.068;13.780;2023-07-29T13:36:56;27.30;1.00
6018;DHT22;3037;51.068;13.780;2023-07-29T13:39:21;27.50;1.00
6018;DHT22;3037;51.068;13.780;2023-07-29T13:41:47;27.90;1.00
6018;DHT22;3037;51.068;13.780;2023-07-29T13:44:12;28.20;1.00
6018;DHT22;3037;51.068;13.780;2023-07-29T13:46:38;28.70;1.00
6018;DHT22;3037;51.068;13.780;2023-07-29T13:49:03;28.70;1.00
6018;DHT22;3037;51.068;13.780;2023-07-29T13:51:29;28.70;1.00
6018;DHT22;3037;51.068;13.780;2023-07-29T13:53:54;29.10;1.00
6018;DHT22;3037;51.068;13.780;2023-07-29T13:56:21;29.40;1.00
6018;DHT22;3037;51.068;13.780;2023-07-29T13:58:47;29.70;1.00
6018;DHT22;3037;51.068;13.780;2023-07-29T14:01:12;29.30;1.00
6018;DHT22;3037;51.068;13.780;2023-07-29T14:03:38;29.40;1.00
6018;DHT22;3037;51.068;13.780;2023-07-29T14:06:03;29.50;1.00
6018;DHT22;3037;51.068;13.780;2023-07-29T14:08:29;29.50;1.00
6018;DHT22;3037;51.068;13.780;2023-07-29T14:10:54;29.70;1.00
6018;DHT22;3037;51.068;13.780;2023-07-29T14:13:20;29.40;1.00
6018;DHT22;3037;51.068;13.780;2023-07-29T14:15:45;29.10;1.00
6018;DHT22;3037;51.068;13.780;2023-07-29T14:18:11;29.00;1.00
6018;DHT22;3037;51.068;13.780;2023-07-29T14:20:36;28.90;1.00
6018;DHT22;3037;51.068;13.780;2023-07-29T14:23:02;28.90;1.00
6018;DHT22;3037;51.068;13.780;2023-07-29T14:25:28;28.80;1.00
6018;DHT22;3037;51.068;13.780;2023-07-29T14:27:53;28.60;1.00
6018;DHT22;3037;51.068;13.780;2023-07-29T14:30:19;28.30;1.00
6018;DHT22;3037;51.068;13.780;2023-07-29T14:32:44;28.20;1.00
6018;DHT22;3037;51.068;13.780;2023-07-29T14:35:10;28.50;1.00
6018;DHT22;3037;51.068;13.780;2023-07-29T14:37:35;28.60;1.00
6018;DHT22;3037;51.068;13.780;2023-07-29T14:40:01;28.90;1.00
6018;DHT22;3037;51.068;13.780;2023-07-29T14:42:28;28.80;1.00
6018;DHT22;3037;51.068;13.780;2023-07-29T14:44:54;28.80;1.00
6018;DHT22;3037;51.068;13.780;2023-07-29T14:47:20;28.60;1.00
6018;DHT22;3037;51.068;13.780;2023-07-29T14:49:45;28.60;1.00
6018;DHT22;3037;51.068;13.780;2023-07-29T14:52:11;28.60;1.00
6018;DHT22;3037;51.068;13.780;2023-07-29T14:54:36;28.70;1.00
6018;DHT22;3037;51.068;13.780;2023-07-29T14:57:02;28.80;1.00
6018;DHT22;3037;51.068;13.780;2023-07-29T14:59:28;29.00;1.00
6018;DHT22;3037;51.068;13.780;2023-07-29T15:01:53;28.70;1.00
6018;DHT22;3037;51.068;13.780;2023-07-29T15:04:19;28.80;1.00
6018;DHT22;3037;51.068;13.780;2023-07-29T15:06:45;28.60;1.00
6018;DHT22;3037;51.068;13.780;2023-07-29T15:09:11;28.70;1.00
6018;DHT22;3037;51.068;13.780;2023-07-29T15:11:36;28.90;1.00
6018;DHT22;3037;51.068;13.780;2023-07-29T15:14:02;28.90;1.00
6018;DHT22;3037;51.068;13.780;2023-07-29T15:16:29;28.70;1.00
6018;DHT22;3037;51.068;13.780;2023-07-29T15:18:54;28.80;1.00
6018;DHT22;3037;51.068;13.780;2023-07-29T15:21:20;28.70;1.00
6018;DHT22;3037;51.068;13.780;2023-07-29T15:23:45;29.00;1.00
6018;DHT22;3037;51.068;13.780;2023-07-29T15:26:11;28.90;1.00
6018;DHT22;3037;51.068;13.780;2023-07-29T15:28:37;28.80;1.00
6018;DHT22;3037;51.068;13.780;2023-07-29T15:31:02;29.00;1.00
6018;DHT22;3037;51.068;13.780;2023-07-29T15:33:28;29.00;1.00
6018;DHT22;3037;51.068;13.780;2023-07-29T15:35:54;28.80;1.00
6018;DHT22;3037;51.068;13.780;2023-07-29T15:38:19;28.70;1.00
6018;DHT22;3037;51.068;13.780;2023-07-29T15:40:45;29.00;1.00
6018;DHT22;3037;51.068;13.780;2023-07-29T15:43:10;29.10;1.00
6018;DHT22;3037;51.068;13.780;2023-07-29T15:45:36;29.10;1.00
6018;DHT22;3037;51.068;13.780;2023-07-29T15:48:02;29.30;1.00
6018;DHT22;3037;51.068;13.780;2023-07-29T15:50:28;29.20;1.00
6018;DHT22;3037;51.068;13.780;2023-07-29T15:52:54;29.00;1.00
6018;DHT22;3037;51.068;13.780;2023-07-29T15:55:20;29.00;1.00
6018;DHT22;3037;51.068;13.780;2023-07-29T15:57:46;28.60;1.00